Otto, New York
Current Conditions -  °F | °C
As of 1:53 AM on Thursday 23 Oct 2014 (Local Time) from KDKK Reporting Station
Overcast Overcast  
Wind Chill: 45°   Ceiling: 2200
Heat Index: 49°   Visibility: 10mi
Dew Point: 43°   Wind: 10mph
Humidity: 80%   Direction: 10°N
Pressure: 30.16"   Gusts: NA
Location:  42.36°N, 78.83°W
Report Text: KDKK 230553Z AUTO 01009KT 10SM BKN022 OVC029 09/06 A3016 RMK AO2 SLP214 T00940061 10100 20078 58013
Loading
Personal Weather Stations






























Interactive Weather Map
Tropical Storm Tracking
New forecast layout! Learn more

10-Day Weather Forecast

Advertisements
Track Severe Weather on mobile